sensor_id;sensor_type;location;lat;lon;timestamp;pressure;altitude;pressure_sealevel;temperature;humidity
10806;BME280;5455;53.224;6.000;2023-02-12T00:00:07;103796.34;;;4.18;100.00
10806;BME280;5455;53.224;6.000;2023-02-12T00:02:40;103796.84;;;4.15;100.00
10806;BME280;5455;53.224;6.000;2023-02-12T00:05:07;103796.59;;;4.16;100.00
10806;BME280;5455;53.224;6.000;2023-02-12T00:07:35;103795.06;;;4.20;100.00
10806;BME280;5455;53.224;6.000;2023-02-12T00:10:02;103794.31;;;4.25;100.00
10806;BME280;5455;53.224;6.000;2023-02-12T00:12:29;103791.66;;;4.30;100.00
10806;BME280;5455;53.224;6.000;2023-02-12T00:14:56;103790.19;;;4.39;100.00
10806;BME280;5455;53.224;6.000;2023-02-12T00:17:23;103793.88;;;4.44;100.00
10806;BME280;5455;53.224;6.000;2023-02-12T00:19:50;103792.56;;;4.47;100.00
10806;BME280;5455;53.224;6.000;2023-02-12T00:22:17;103788.16;;;4.46;100.00
10806;BME280;5455;53.224;6.000;2023-02-12T00:24:44;103792.44;;;4.42;100.00
10806;BME280;5455;53.224;6.000;2023-02-12T00:27:10;103795.66;;;4.39;100.00
10806;BME280;5455;53.224;6.000;2023-02-12T00:29:37;103793.28;;;4.42;100.00
10806;BME280;5455;53.224;6.000;2023-02-12T00:32:04;103794.38;;;4.41;100.00
10806;BME280;5455;53.224;6.000;2023-02-12T00:34:32;103794.09;;;4.43;100.00
10806;BME280;5455;53.224;6.000;2023-02-12T00:36:58;103789.47;;;4.43;100.00
10806;BME280;5455;53.224;6.000;2023-02-12T00:39:26;103793.88;;;4.44;100.00
10806;BME280;5455;53.224;6.000;2023-02-12T00:41:53;103793.03;;;4.44;100.00
10806;BME280;5455;53.224;6.000;2023-02-12T00:44:20;103791.38;;;4.43;100.00
10806;BME280;5455;53.224;6.000;2023-02-12T00:46:47;103801.09;;;4.51;100.00
10806;BME280;5455;53.224;6.000;2023-02-12T00:49:15;103789.63;;;4.54;100.00
10806;BME280;5455;53.224;6.000;2023-02-12T00:51:44;103796.19;;;4.53;100.00
10806;BME280;5455;53.224;6.000;2023-02-12T00:54:11;103796.69;;;4.50;100.00
10806;BME280;5455;53.224;6.000;2023-02-12T00:56:38;103788.56;;;4.55;100.00
10806;BME280;5455;53.224;6.000;2023-02-12T00:59:06;103791.38;;;4.60;100.00
10806;BME280;5455;53.224;6.000;2023-02-12T01:01:34;103790.41;;;4.66;100.00
10806;BME280;5455;53.224;6.000;2023-02-12T01:04:02;103799.78;;;4.70;100.00
10806;BME280;5455;53.224;6.000;2023-02-12T01:06:29;103792.16;;;4.72;100.00
10806;BME280;5455;53.224;6.000;2023-02-12T01:08:56;103797.72;;;4.77;100.00
10806;BME280;5455;53.224;6.000;2023-02-12T01:11:23;103803.53;;;4.80;100.00
10806;BME280;5455;53.224;6.000;2023-02-12T01:13:51;103798.88;;;4.81;100.00
10806;BME280;5455;53.224;6.000;2023-02-12T01:16:20;103791.75;;;4.80;100.00
10806;BME280;5455;53.224;6.000;2023-02-12T01:18:49;103805.75;;;4.83;100.00
10806;BME280;5455;53.224;6.000;2023-02-12T01:21:23;103802.69;;;4.80;100.00
10806;BME280;5455;53.224;6.000;2023-02-12T01:23:50;103814.47;;;4.80;100.00
10806;BME280;5455;53.224;6.000;2023-02-12T01:26:18;103808.16;;;4.80;100.00
10806;BME280;5455;53.224;6.000;2023-02-12T01:28:51;103809.50;;;4.77;100.00
10806;BME280;5455;53.224;6.000;2023-02-12T01:31:21;103813.28;;;4.76;100.00
10806;BME280;5455;53.224;6.000;2023-02-12T01:33:51;103814.13;;;4.77;100.00
10806;BME280;5455;53.224;6.000;2023-02-12T01:36:18;103810.56;;;4.76;100.00
10806;BME280;5455;53.224;6.000;2023-02-12T01:38:47;103802.00;;;4.73;100.00
10806;BME280;5455;53.224;6.000;2023-02-12T01:41:24;103807.47;;;4.73;100.00
10806;BME280;5455;53.224;6.000;2023-02-12T01:44:16;103807.25;;;4.74;100.00
10806;BME280;5455;53.224;6.000;2023-02-12T01:46:46;103812.13;;;4.72;100.00
10806;BME280;5455;53.224;6.000;2023-02-12T01:49:23;103812.13;;;4.72;100.00
10806;BME280;5455;53.224;6.000;2023-02-12T01:51:59;103815.34;;;4.69;100.00
10806;BME280;5455;53.224;6.000;2023-02-12T01:54:29;103817.09;;;4.75;100.00
10806;BME280;5455;53.224;6.000;2023-02-12T01:56:58;103811.03;;;4.73;100.00
10806;BME280;5455;53.224;6.000;2023-02-12T01:59:26;103819.47;;;4.72;100.00
10806;BME280;5455;53.224;6.000;2023-02-12T02:01:53;103817.09;;;4.75;100.00
10806;BME280;5455;53.224;6.000;2023-02-12T02:04:24;103811.63;;;4.75;100.00
10806;BME280;5455;53.224;6.000;2023-02-12T02:06:57;103819.31;;;4.78;100.00
10806;BME280;5455;53.224;6.000;2023-02-12T02:09:25;103811.47;;;4.82;100.00
10806;BME280;5455;53.224;6.000;2023-02-12T02:11:54;103812.28;;;4.82;100.00
10806;BME280;5455;53.224;6.000;2023-02-12T02:14:40;103813.97;;;4.83;100.00
10806;BME280;5455;53.224;6.000;2023-02-12T02:34:03;103801.34;;;4.99;100.00
10806;BME280;5455;53.224;6.000;2023-02-12T02:37:14;103809.06;;;5.02;100.00
10806;BME280;5455;53.224;6.000;2023-02-12T02:39:38;103791.66;;;5.08;100.00
10806;BME280;5455;53.224;6.000;2023-02-12T02:42:12;103789.25;;;5.12;100.00
10806;BME280;5455;53.224;6.000;2023-02-12T02:44:56;103791.75;;;5.13;100.00
10806;BME280;5455;53.224;6.000;2023-02-12T02:47:34;103792.88;;;5.17;100.00
10806;BME280;5455;53.224;6.000;2023-02-12T02:50:08;103787.19;;;5.19;100.00
10806;BME280;5455;53.224;6.000;2023-02-12T02:52:42;103786.91;;;5.20;100.00
10806;BME280;5455;53.224;6.000;2023-02-12T02:55:15;103796.78;;;5.21;100.00
10806;BME280;5455;53.224;6.000;2023-02-12T02:57:53;103799.84;;;5.25;100.00
10806;BME280;5455;53.224;6.000;2023-02-12T03:00:36;103794.38;;;5.25;100.00
10806;BME280;5455;53.224;6.000;2023-02-12T03:05:52;103795.63;;;5.34;100.00
10806;BME280;5455;53.224;6.000;2023-02-12T03:08:25;103789.63;;;5.37;100.00
10806;BME280;5455;53.224;6.000;2023-02-12T03:10:59;103795.34;;;5.35;100.00
10806;BME280;5455;53.224;6.000;2023-02-12T03:13:33;103794.50;;;5.35;100.00
10806;BME280;5455;53.224;6.000;2023-02-12T03:16:12;103801.66;;;5.36;100.00
10806;BME280;5455;53.224;6.000;2023-02-12T03:18:50;103794.78;;;5.33;100.00
10806;BME280;5455;53.224;6.000;2023-02-12T03:21:26;103792.03;;;5.33;100.00
10806;BME280;5455;53.224;6.000;2023-02-12T03:24:10;103797.53;;;5.33;100.00
10806;BME280;5455;53.224;6.000;2023-02-12T03:26:44;103805.72;;;5.33;100.00
10806;BME280;5455;53.224;6.000;2023-02-12T03:29:12;103794.50;;;5.35;100.00
10806;BME280;5455;53.224;6.000;2023-02-12T03:35:19;103796.69;;;5.33;100.00
10806;BME280;5455;53.224;6.000;2023-02-12T03:38:08;103795.63;;;5.34;100.00
10806;BME280;5455;53.224;6.000;2023-02-12T03:40:56;103783.34;;;5.36;100.00
10806;BME280;5455;53.224;6.000;2023-02-12T03:43:29;103788.81;;;5.36;100.00
10806;BME280;5455;53.224;6.000;2023-02-12T03:46:25;103788.75;;;5.31;100.00
10806;BME280;5455;53.224;6.000;2023-02-12T03:49:00;103790.88;;;5.29;100.00
10806;BME280;5455;53.224;6.000;2023-02-12T03:51:36;103787.00;;;5.25;100.00
10806;BME280;5455;53.224;6.000;2023-02-12T03:54:06;103786.69;;;5.22;100.00
10806;BME280;5455;53.224;6.000;2023-02-12T03:56:42;103786.69;;;5.22;100.00
10806;BME280;5455;53.224;6.000;2023-02-12T03:59:10;103785.59;;;5.23;100.00
10806;BME280;5455;53.224;6.000;2023-02-12T04:01:38;103791.88;;;5.23;100.00
10806;BME280;5455;53.224;6.000;2023-02-12T04:04:06;103787.25;;;5.24;100.00
10806;BME280;5455;53.224;6.000;2023-02-12T04:06:34;103784.28;;;5.25;100.00
10806;BME280;5455;53.224;6.000;2023-02-12T04:09:04;103792.38;;;5.20;100.00
10806;BME280;5455;53.224;6.000;2023-02-12T04:17:29;103788.25;;;5.18;100.00
10806;BME280;5455;53.224;6.000;2023-02-12T04:25:41;103784.94;;;5.16;100.00
10806;BME280;5455;53.224;6.000;2023-02-12T04:31:19;103788.41;;;5.11;100.00
10806;BME280;5455;53.224;6.000;2023-02-12T04:36:28;103783.31;;;4.98;100.00
10806;BME280;5455;53.224;6.000;2023-02-12T04:39:20;103794.88;;;5.05;100.00
10806;BME280;5455;53.224;6.000;2023-02-12T04:41:49;103807.50;;;5.06;100.00
10806;BME280;5455;53.224;6.000;2023-02-12T04:44:21;103807.50;;;5.06;100.00
10806;BME280;5455;53.224;6.000;2023-02-12T04:46:49;103815.38;;;5.03;100.00
10806;BME280;5455;53.224;6.000;2023-02-12T04:49:18;103805.03;;;5.05;100.00
10806;BME280;5455;53.224;6.000;2023-02-12T04:51:47;103798.03;;;4.97;100.00
10806;BME280;5455;53.224;6.000;2023-02-12T04:54:15;103809.47;;;4.94;100.00
10806;BME280;5455;53.224;6.000;2023-02-12T04:56:43;103806.75;;;4.94;100.00
10806;BME280;5455;53.224;6.000;2023-02-12T04:59:10;103813.38;;;4.98;100.00
10806;BME280;5455;53.224;6.000;2023-02-12T05:01:38;103811.16;;;4.95;100.00
10806;BME280;5455;53.224;6.000;2023-02-12T05:04:06;103813.28;;;4.93;100.00
10806;BME280;5455;53.224;6.000;2023-02-12T05:06:34;103811.53;;;4.87;100.00
10806;BME280;5455;53.224;6.000;2023-02-12T05:09:02;103809.06;;;4.85;100.00
10806;BME280;5455;53.224;6.000;2023-02-12T05:11:30;103802.19;;;4.83;100.00
10806;BME280;5455;53.224;6.000;2023-02-12T05:13:57;103807.41;;;4.84;100.00
10806;BME280;5455;53.224;6.000;2023-02-12T05:16:24;103807.06;;;4.81;100.00
10806;BME280;5455;53.224;6.000;2023-02-12T05:18:51;103804.03;;;4.77;100.00
10806;BME280;5455;53.224;6.000;2023-02-12T05:21:18;103810.78;;;4.75;100.00
10806;BME280;5455;53.224;6.000;2023-02-12T05:23:45;103814.00;;;4.72;100.00
10806;BME280;5455;53.224;6.000;2023-02-12T05:26:17;103806.50;;;4.62;100.00
10806;BME280;5455;53.224;6.000;2023-02-12T05:28:44;103808.63;;;4.60;100.00
10806;BME280;5455;53.224;6.000;2023-02-12T05:31:16;103813.75;;;4.57;100.00
10806;BME280;5455;53.224;6.000;2023-02-12T05:33:47;103811.63;;;4.59;100.00
10806;BME280;5455;53.224;6.000;2023-02-12T05:36:17;103804.63;;;4.51;100.00
10806;BME280;5455;53.224;6.000;2023-02-12T05:38:45;103810.34;;;4.50;100.00
10806;BME280;5455;53.224;6.000;2023-02-12T05:41:18;103820.09;;;4.45;100.00
10806;BME280;5455;53.224;6.000;2023-02-12T05:43:46;103820.09;;;4.45;100.00
10806;BME280;5455;53.224;6.000;2023-02-12T05:46:16;103825.56;;;4.45;100.00
10806;BME280;5455;53.224;6.000;2023-02-12T05:48:44;103825.56;;;4.45;100.00
10806;BME280;5455;53.224;6.000;2023-02-12T05:51:14;103829.97;;;4.47;100.00
10806;BME280;5455;53.224;6.000;2023-02-12T05:53:42;103825.91;;;4.49;100.00
10806;BME280;5455;53.224;6.000;2023-02-12T05:56:14;103828.41;;;4.51;100.00
10806;BME280;5455;53.224;6.000;2023-02-12T05:58:45;103834.38;;;4.48;100.00
10806;BME280;5455;53.224;6.000;2023-02-12T06:01:18;103835.91;;;4.43;100.00
10806;BME280;5455;53.224;6.000;2023-02-12T06:03:45;103843.69;;;4.35;100.00
10806;BME280;5455;53.224;6.000;2023-02-12T06:06:12;103835.97;;;4.32;100.00
10806;BME280;5455;53.224;6.000;2023-02-12T06:08:40;103828.41;;;4.22;100.00
10806;BME280;5455;53.224;6.000;2023-02-12T06:11:10;103830.28;;;4.22;100.00
10806;BME280;5455;53.224;6.000;2023-02-12T06:13:38;103827.47;;;4.17;100.00
10806;BME280;5455;53.224;6.000;2023-02-12T06:16:06;103824.75;;;4.17;100.00
10806;BME280;5455;53.224;6.000;2023-02-12T06:18:36;103826.88;;;4.15;100.00
10806;BME280;5455;53.224;6.000;2023-02-12T06:21:03;103829.28;;;4.11;100.00
10806;BME280;5455;53.224;6.000;2023-02-12T06:23:30;103829.03;;;4.13;100.00
10806;BME280;5455;53.224;6.000;2023-02-12T06:25:57;103832.09;;;4.16;100.00
10806;BME280;5455;53.224;6.000;2023-02-12T06:28:24;103832.69;;;4.18;100.00
10806;BME280;5455;53.224;6.000;2023-02-12T06:30:52;103824.50;;;4.18;100.00
10806;BME280;5455;53.224;6.000;2023-02-12T06:33:19;103835.91;;;4.15;100.00
10806;BME280;5455;53.224;6.000;2023-02-12T06:35:46;103840.78;;;4.13;100.00
10806;BME280;5455;53.224;6.000;2023-02-12T06:38:13;103843.38;;;4.20;100.00
10806;BME280;5455;53.224;6.000;2023-02-12T06:40:39;103846.94;;;4.20;100.00
10806;BME280;5455;53.224;6.000;2023-02-12T06:43:06;103855.38;;;4.19;100.00
10806;BME280;5455;53.224;6.000;2023-02-12T06:45:34;103851.22;;;4.16;100.00
10806;BME280;5455;53.224;6.000;2023-02-12T06:48:01;103861.75;;;4.24;100.00
10806;BME280;5455;53.224;6.000;2023-02-12T06:50:28;103857.22;;;4.30;100.00
10806;BME280;5455;53.224;6.000;2023-02-12T06:52:57;103851.19;;;4.28;100.00
10806;BME280;5455;53.224;6.000;2023-02-12T06:55:24;103866.38;;;4.35;100.00
10806;BME280;5455;53.224;6.000;2023-02-12T06:57:51;103872.97;;;4.39;100.00
10806;BME280;5455;53.224;6.000;2023-02-12T07:00:18;103869.75;;;4.42;100.00
10806;BME280;5455;53.224;6.000;2023-02-12T07:02:51;103875.00;;;4.44;100.00
10806;BME280;5455;53.224;6.000;2023-02-12T07:05:18;103872.94;;;4.51;100.00
10806;BME280;5455;53.224;6.000;2023-02-12T07:07:45;103879.59;;;4.55;100.00
10806;BME280;5455;53.224;6.000;2023-02-12T07:10:12;103879.44;;;4.62;100.00
10806;BME280;5455;53.224;6.000;2023-02-12T07:12:39;103887.72;;;4.67;100.00
10806;BME280;5455;53.224;6.000;2023-02-12T07:15:07;103888.06;;;4.70;100.00
10806;BME280;5455;53.224;6.000;2023-02-12T07:17:34;103890.81;;;4.70;100.00
10806;BME280;5455;53.224;6.000;2023-02-12T07:20:01;103888.31;;;4.69;100.00
10806;BME280;5455;53.224;6.000;2023-02-12T07:22:28;103891.38;;;4.72;100.00
10806;BME280;5455;53.224;6.000;2023-02-12T07:24:55;103890.16;;;4.80;100.00
10806;BME280;5455;53.224;6.000;2023-02-12T07:27:22;103888.34;;;4.85;100.00
10806;BME280;5455;53.224;6.000;2023-02-12T07:29:49;103894.72;;;4.91;100.00
10806;BME280;5455;53.224;6.000;2023-02-12T07:32:17;103895.41;;;4.98;100.00
10806;BME280;5455;53.224;6.000;2023-02-12T07:34:44;103904.47;;;4.98;100.00
10806;BME280;5455;53.224;6.000;2023-02-12T07:37:12;103911.69;;;5.05;100.00
10806;BME280;5455;53.224;6.000;2023-02-12T07:39:39;103907.13;;;5.10;100.00
10806;BME280;5455;53.224;6.000;2023-02-12T07:42:06;103905.78;;;5.13;100.00
10806;BME280;5455;53.224;6.000;2023-02-12T07:44:34;103906.13;;;5.16;100.00
10806;BME280;5455;53.224;6.000;2023-02-12T07:47:01;103915.25;;;5.22;100.00
10806;BME280;5455;53.224;6.000;2023-02-12T07:49:29;103916.41;;;5.26;100.00
10806;BME280;5455;53.224;6.000;2023-02-12T07:51:56;103913.84;;;5.36;100.00
10806;BME280;5455;53.224;6.000;2023-02-12T07:54:24;103909.28;;;5.41;100.00
10806;BME280;5455;53.224;6.000;2023-02-12T07:56:51;103919.16;;;5.42;100.00
10806;BME280;5455;53.224;6.000;2023-02-12T07:59:18;103916.97;;;5.44;100.00
10806;BME280;5455;53.224;6.000;2023-02-12T08:01:50;103926.88;;;5.45;100.00
10806;BME280;5455;53.224;6.000;2023-02-12T08:04:20;103923.13;;;5.51;100.00
10806;BME280;5455;53.224;6.000;2023-02-12T08:06:49;103921.88;;;5.59;100.00
10806;BME280;5455;53.224;6.000;2023-02-12T08:09:19;103925.84;;;5.68;100.00
10806;BME280;5455;53.224;6.000;2023-02-12T08:11:46;103927.84;;;5.73;100.00
10806;BME280;5455;53.224;6.000;2023-02-12T08:14:16;103923.59;;;5.82;100.00
10806;BME280;5455;53.224;6.000;2023-02-12T08:16:45;103928.34;;;5.86;100.00
10806;BME280;5455;53.224;6.000;2023-02-12T08:19:13;103930.34;;;5.91;100.00
10806;BME280;5455;53.224;6.000;2023-02-12T08:21:50;103934.47;;;5.93;100.00
10806;BME280;5455;53.224;6.000;2023-02-12T08:24:18;103938.09;;;5.99;100.00
10806;BME280;5455;53.224;6.000;2023-02-12T08:26:45;103938.78;;;6.06;100.00
10806;BME280;5455;53.224;6.000;2023-02-12T08:29:15;103938.59;;;6.13;100.00
10806;BME280;5455;53.224;6.000;2023-02-12T08:31:44;103939.16;;;6.15;100.00
10806;BME280;5455;53.224;6.000;2023-02-12T08:34:17;103936.56;;;6.25;100.00
10806;BME280;5455;53.224;6.000;2023-02-12T08:36:46;103928.72;;;6.33;100.00
10806;BME280;5455;53.224;6.000;2023-02-12T08:39:13;103930.13;;;6.36;100.00
10806;BME280;5455;53.224;6.000;2023-02-12T08:41:40;103938.16;;;6.42;100.00
10806;BME280;5455;53.224;6.000;2023-02-12T08:44:11;103947.66;;;6.56;100.00
10806;BME280;5455;53.224;6.000;2023-02-12T08:46:43;103953.81;;;6.69;100.00
10806;BME280;5455;53.224;6.000;2023-02-12T08:49:17;103951.97;;;6.74;100.00
10806;BME280;5455;53.224;6.000;2023-02-12T08:51:47;103951.22;;;6.79;100.00
10806;BME280;5455;53.224;6.000;2023-02-12T08:54:16;103952.91;;;6.85;100.00
10806;BME280;5455;53.224;6.000;2023-02-12T08:56:44;103953.22;;;6.88;100.00
10806;BME280;5455;53.224;6.000;2023-02-12T08:59:12;103961.19;;;6.90;100.00
10806;BME280;5455;53.224;6.000;2023-02-12T09:01:40;103965.13;;;6.99;100.00
10806;BME280;5455;53.224;6.000;2023-02-12T09:04:14;103963.59;;;7.08;100.00
10806;BME280;5455;53.224;6.000;2023-02-12T09:06:45;103965.53;;;7.12;100.00
10806;BME280;5455;53.224;6.000;2023-02-12T09:09:13;103960.91;;;7.18;100.00
10806;BME280;5455;53.224;6.000;2023-02-12T09:11:41;103958.50;;;7.21;100.00
10806;BME280;5455;53.224;6.000;2023-02-12T09:14:11;103963.47;;;7.25;100.00
10806;BME280;5455;53.224;6.000;2023-02-12T09:16:39;103961.06;;;7.33;100.00
10806;BME280;5455;53.224;6.000;2023-02-12T09:19:07;103963.91;;;7.43;100.00
10806;BME280;5455;53.224;6.000;2023-02-12T09:21:34;103966.75;;;7.53;100.00
10806;BME280;5455;53.224;6.000;2023-02-12T09:24:02;103964.66;;;7.65;100.00
10806;BME280;5455;53.224;6.000;2023-02-12T09:26:29;103960.56;;;7.73;100.00
10806;BME280;5455;53.224;6.000;2023-02-12T09:28:57;103969.44;;;7.80;100.00
10806;BME280;5455;53.224;6.000;2023-02-12T09:31:26;103969.53;;;7.95;100.00
10806;BME280;5455;53.224;6.000;2023-02-12T09:33:57;103978.09;;;8.04;100.00
10806;BME280;5455;53.224;6.000;2023-02-12T09:36:26;103969.34;;;8.12;100.00
10806;BME280;5455;53.224;6.000;2023-02-12T09:38:53;103969.72;;;8.25;100.00
10806;BME280;5455;53.224;6.000;2023-02-12T09:44:20;103978.34;;;8.39;100.00
10806;BME280;5455;53.224;6.000;2023-02-12T09:46:58;103969.06;;;8.55;100.00
10806;BME280;5455;53.224;6.000;2023-02-12T09:52:18;103972.41;;;8.67;100.00
10806;BME280;5455;53.224;6.000;2023-02-12T09:54:47;103971.34;;;8.73;100.00
10806;BME280;5455;53.224;6.000;2023-02-12T09:57:32;103977.97;;;8.82;100.00
10806;BME280;5455;53.224;6.000;2023-02-12T10:00:17;103987.91;;;8.94;100.00
10806;BME280;5455;53.224;6.000;2023-02-12T10:02:45;103981.84;;;8.97;100.00
10806;BME280;5455;53.224;6.000;2023-02-12T10:05:33;103979.09;;;9.02;100.00
10806;BME280;5455;53.224;6.000;2023-02-12T10:22:22;103990.47;;;9.46;100.00
10806;BME280;5455;53.224;6.000;2023-02-12T10:27:42;103984.69;;;9.42;100.00
10806;BME280;5455;53.224;6.000;2023-02-12T10:30:39;103988.25;;;9.53;100.00
10806;BME280;5455;53.224;6.000;2023-02-12T10:33:50;103994.31;;;9.65;100.00
10806;BME280;5455;53.224;6.000;2023-02-12T10:36:41;103989.91;;;9.74;100.00
10806;BME280;5455;53.224;6.000;2023-02-12T10:41:40;103997.66;;;9.72;100.00
10806;BME280;5455;53.224;6.000;2023-02-12T10:44:10;103997.91;;;9.80;100.00
10806;BME280;5455;53.224;6.000;2023-02-12T10:46:38;103997.06;;;9.80;100.00
10806;BME280;5455;53.224;6.000;2023-02-12T10:49:07;104000.94;;;9.94;100.00
10806;BME280;5455;53.224;6.000;2023-02-12T10:51:44;104000.09;;;9.88;100.00
10806;BME280;5455;53.224;6.000;2023-02-12T10:57:16;104001.19;;;10.03;100.00
10806;BME280;5455;53.224;6.000;2023-02-12T10:59:45;104003.69;;;10.09;100.00
10806;BME280;5455;53.224;6.000;2023-02-12T11:02:28;104009.44;;;10.13;100.00
10806;BME280;5455;53.224;6.000;2023-02-12T11:04:57;104001.75;;;10.20;100.00
10806;BME280;5455;53.224;6.000;2023-02-12T11:07:27;104005.56;;;10.34;100.00
10806;BME280;5455;53.224;6.000;2023-02-12T11:09:55;104007.81;;;10.27;100.00
10806;BME280;5455;53.224;6.000;2023-02-12T11:12:40;104007.25;;;10.20;100.00
10806;BME280;5455;53.224;6.000;2023-02-12T11:15:20;104004.53;;;10.15;100.00
10806;BME280;5455;53.224;6.000;2023-02-12T11:18:00;104002.31;;;10.02;100.00
10806;BME280;5455;53.224;6.000;2023-02-12T11:20:38;103998.47;;;9.87;100.00
10806;BME280;5455;53.224;6.000;2023-02-12T11:23:31;104003.41;;;9.80;100.00
10806;BME280;5455;53.224;6.000;2023-02-12T11:26:02;103989.63;;;9.70;100.00
10806;BME280;5455;53.224;6.000;2023-02-12T11:28:31;103995.97;;;9.71;100.00
10806;BME280;5455;53.224;6.000;2023-02-12T11:33:36;103992.97;;;9.67;100.00
10806;BME280;5455;53.224;6.000;2023-02-12T11:36:23;103992.97;;;9.72;100.00
10806;BME280;5455;53.224;6.000;2023-02-12T11:38:54;103980.53;;;9.80;100.00
10806;BME280;5455;53.224;6.000;2023-02-12T11:41:34;103984.41;;;9.79;100.00
10806;BME280;5455;53.224;6.000;2023-02-12T11:44:09;103979.19;;;9.72;100.00
10806;BME280;5455;53.224;6.000;2023-02-12T11:46:39;103982.47;;;9.74;100.00
10806;BME280;5455;53.224;6.000;2023-02-12T11:49:37;103978.38;;;9.67;100.00
10806;BME280;5455;53.224;6.000;2023-02-12T11:52:05;103974.78;;;9.66;100.00
10806;BME280;5455;53.224;6.000;2023-02-12T11:54:39;103980.84;;;9.68;100.00
10806;BME280;5455;53.224;6.000;2023-02-12T11:57:43;103976.44;;;9.62;100.00
10806;BME280;5455;53.224;6.000;2023-02-12T12:02:57;103975.88;;;9.55;100.00
10806;BME280;5455;53.224;6.000;2023-02-12T12:05:38;103969.28;;;9.66;100.00
10806;BME280;5455;53.224;6.000;2023-02-12T12:08:14;103962.66;;;9.72;100.00
10806;BME280;5455;53.224;6.000;2023-02-12T12:11:24;103967.59;;;9.75;100.00
10806;BME280;5455;53.224;6.000;2023-02-12T12:13:49;103963.16;;;9.79;100.00
10806;BME280;5455;53.224;6.000;2023-02-12T12:16:23;103969.50;;;9.90;100.00
10806;BME280;5455;53.224;6.000;2023-02-12T12:19:37;103961.25;;;9.85;100.00
10806;BME280;5455;53.224;6.000;2023-02-12T12:25:30;103970.06;;;9.87;100.00
10806;BME280;5455;53.224;6.000;2023-02-12T12:50:08;103952.47;;;9.63;100.00
10806;BME280;5455;53.224;6.000;2023-02-12T12:53:03;103947.50;;;9.65;100.00
10806;BME280;5455;53.224;6.000;2023-02-12T13:11:44;103928.47;;;9.78;100.00
10806;BME280;5455;53.224;6.000;2023-02-12T13:22:48;103917.72;;;9.72;100.00
10806;BME280;5455;53.224;6.000;2023-02-12T13:27:49;103920.50;;;9.57;100.00
10806;BME280;5455;53.224;6.000;2023-02-12T13:30:51;103921.88;;;9.54;100.00
10806;BME280;5455;53.224;6.000;2023-02-12T13:33:16;103914.19;;;9.51;100.00
10806;BME280;5455;53.224;6.000;2023-02-12T13:35:49;103907.56;;;9.52;100.00
10806;BME280;5455;53.224;6.000;2023-02-12T13:41:11;103914.72;;;9.53;100.00
10806;BME280;5455;53.224;6.000;2023-02-12T13:52:02;103918.59;;;9.37;100.00
10806;BME280;5455;53.224;6.000;2023-02-12T13:54:56;103919.69;;;9.36;100.00
10806;BME280;5455;53.224;6.000;2023-02-12T13:57:26;103915.00;;;9.36;100.00
10806;BME280;5455;53.224;6.000;2023-02-12T13:59:54;103918.56;;;9.32;100.00
10806;BME280;5455;53.224;6.000;2023-02-12T14:05:01;103913.09;;;9.22;100.00
10806;BME280;5455;53.224;6.000;2023-02-12T14:07:45;103919.69;;;9.16;100.00
10806;BME280;5455;53.224;6.000;2023-02-12T14:10:23;103918.56;;;9.17;100.00
10806;BME280;5455;53.224;6.000;2023-02-12T14:12:52;103915.81;;;9.12;100.00
10806;BME280;5455;53.224;6.000;2023-02-12T14:15:34;103918.28;;;9.08;100.00
10806;BME280;5455;53.224;6.000;2023-02-12T14:18:21;103913.06;;;9.07;100.00
10806;BME280;5455;53.224;6.000;2023-02-12T14:23:42;103914.13;;;8.96;100.00
10806;BME280;5455;53.224;6.000;2023-02-12T14:26:16;103911.13;;;8.97;100.00
10806;BME280;5455;53.224;6.000;2023-02-12T14:29:05;103915.81;;;9.02;100.00
10806;BME280;5455;53.224;6.000;2023-02-12T14:31:41;103914.16;;;9.06;100.00
10806;BME280;5455;53.224;6.000;2023-02-12T14:36:37;103913.31;;;9.10;100.00
10806;BME280;5455;53.224;6.000;2023-02-12T14:41:46;103910.88;;;9.04;100.00
10806;BME280;5455;53.224;6.000;2023-02-12T14:46:53;103902.88;;;8.92;100.00
10806;BME280;5455;53.224;6.000;2023-02-12T14:49:32;103901.22;;;8.91;100.00
10806;BME280;5455;53.224;6.000;2023-02-12T14:54:42;103903.41;;;8.89;100.00
10806;BME280;5455;53.224;6.000;2023-02-12T14:57:26;103906.97;;;8.90;100.00
10806;BME280;5455;53.224;6.000;2023-02-12T15:00:00;103905.34;;;8.89;100.00
10806;BME280;5455;53.224;6.000;2023-02-12T15:02:31;103895.13;;;8.84;100.00
10806;BME280;5455;53.224;6.000;2023-02-12T15:05:10;103893.50;;;8.83;100.00
10806;BME280;5455;53.224;6.000;2023-02-12T15:07:43;103892.38;;;8.79;100.00
10806;BME280;5455;53.224;6.000;2023-02-12T15:10:18;103885.47;;;8.71;100.00
10806;BME280;5455;53.224;6.000;2023-02-12T15:15:32;103887.69;;;8.69;100.00
10806;BME280;5455;53.224;6.000;2023-02-12T15:21:03;103871.19;;;8.69;100.00
10806;BME280;5455;53.224;6.000;2023-02-12T15:26:31;103881.63;;;8.67;100.00
10806;BME280;5455;53.224;6.000;2023-02-12T15:28:59;103876.09;;;8.62;100.00
10806;BME280;5455;53.224;6.000;2023-02-12T15:31:29;103879.41;;;8.59;100.00
10806;BME280;5455;53.224;6.000;2023-02-12T15:33:59;103877.75;;;8.63;100.00
10806;BME280;5455;53.224;6.000;2023-02-12T15:36:29;103874.47;;;8.61;100.00
10806;BME280;5455;53.224;6.000;2023-02-12T15:38:58;103876.66;;;8.59;100.00
10806;BME280;5455;53.224;6.000;2023-02-12T15:41:39;103873.94;;;8.64;100.00
10806;BME280;5455;53.224;6.000;2023-02-12T15:44:27;103873.34;;;8.62;100.00
10806;BME280;5455;53.224;6.000;2023-02-12T15:47:02;103878.31;;;8.60;100.00
10806;BME280;5455;53.224;6.000;2023-02-12T15:49:35;103876.94;;;8.58;100.00
10806;BME280;5455;53.224;6.000;2023-02-12T15:52:09;103882.69;;;8.56;100.00
10806;BME280;5455;53.224;6.000;2023-02-12T15:54:37;103880.78;;;8.57;100.00
10806;BME280;5455;53.224;6.000;2023-02-12T15:57:13;103874.44;;;8.51;100.00
10806;BME280;5455;53.224;6.000;2023-02-12T15:59:50;103870.56;;;8.42;100.00
10806;BME280;5455;53.224;6.000;2023-02-12T16:02:25;103868.63;;;8.38;100.00
10806;BME280;5455;53.224;6.000;2023-02-12T16:04:55;103866.13;;;8.36;100.00
10806;BME280;5455;53.224;6.000;2023-02-12T16:07:23;103872.75;;;8.35;100.00